テヘラン の空港の天気 - METARとTAF

メヘラーバード国際空港(テヘラン) ( OIII / THR ) - イラン テヘラン
飛行場実況気象(Metar)
観測時間10/23 16:30 IRST (10/23 13:00 UTC)
風向・風速西南西 7m/s
視程10km以上
天気現象
なし
気温23℃
湿度12%
気圧1017hPa
METAROIII 231300Z 25014KT CAVOK 23/M08 Q1017 A3005 NOSIG
過去の天気等 Google飛行場航空写真 Wunderground天気予報

過去48時間のMETAR

飛行場予報(TAF)
発表時間: 10/23 09:10 IRST (10/23 05:40 UTC)
予報対象時間: 23日9時 IRST ~ 24日15時 IRST
風向・風速南 4m/s
視程7,000m
なし
23日21時 IRST ~ 23日23時 IRST に徐々に
風向・風速北西 5m/s
24日7時 IRST ~ 24日9時 IRST に徐々に
風向・風速南 4m/s
TAF OIII 230540Z 2306/2412 17004MPS 7000 NSC
BECMG 2318/2320 32005MPS
BECMG 2404/2406 17004MPS